sensor_id;sensor_type;location;lat;lon;timestamp;temperature;humidity
25991;DHT22;13779;-33.886;151.198;2023-05-09T00:01:39;15.30;99.90
25991;DHT22;13779;-33.886;151.198;2023-05-09T00:04:12;15.40;99.90
25991;DHT22;13779;-33.886;151.198;2023-05-09T00:06:44;15.40;99.90
25991;DHT22;13779;-33.886;151.198;2023-05-09T00:09:15;15.50;99.90
25991;DHT22;13779;-33.886;151.198;2023-05-09T00:11:46;15.60;99.90
25991;DHT22;13779;-33.886;151.198;2023-05-09T00:14:16;15.60;99.90
25991;DHT22;13779;-33.886;151.198;2023-05-09T00:16:48;15.70;99.90
25991;DHT22;13779;-33.886;151.198;2023-05-09T00:19:19;15.70;99.90
25991;DHT22;13779;-33.886;151.198;2023-05-09T00:21:49;15.70;99.90
25991;DHT22;13779;-33.886;151.198;2023-05-09T00:24:20;15.80;99.90
25991;DHT22;13779;-33.886;151.198;2023-05-09T00:26:51;15.80;99.90
25991;DHT22;13779;-33.886;151.198;2023-05-09T00:29:21;15.80;99.90
25991;DHT22;13779;-33.886;151.198;2023-05-09T00:31:52;15.90;99.90
25991;DHT22;13779;-33.886;151.198;2023-05-09T00:34:23;15.90;99.90
25991;DHT22;13779;-33.886;151.198;2023-05-09T00:36:53;16.00;99.90
25991;DHT22;13779;-33.886;151.198;2023-05-09T00:39:24;16.10;99.90
25991;DHT22;13779;-33.886;151.198;2023-05-09T00:41:57;16.10;99.90
25991;DHT22;13779;-33.886;151.198;2023-05-09T00:44:28;16.20;99.90
25991;DHT22;13779;-33.886;151.198;2023-05-09T00:46:58;16.20;99.90
25991;DHT22;13779;-33.886;151.198;2023-05-09T00:49:29;16.30;99.90
25991;DHT22;13779;-33.886;151.198;2023-05-09T00:51:59;16.40;99.90
25991;DHT22;13779;-33.886;151.198;2023-05-09T00:54:30;16.50;99.90
25991;DHT22;13779;-33.886;151.198;2023-05-09T00:57:01;16.50;99.90
25991;DHT22;13779;-33.886;151.198;2023-05-09T00:59:32;16.60;99.90
25991;DHT22;13779;-33.886;151.198;2023-05-09T01:02:02;16.60;99.90
25991;DHT22;13779;-33.886;151.198;2023-05-09T01:04:33;16.70;99.90
25991;DHT22;13779;-33.886;151.198;2023-05-09T01:12:38;17.00;99.90
25991;DHT22;13779;-33.886;151.198;2023-05-09T01:15:16;17.00;99.90
25991;DHT22;13779;-33.886;151.198;2023-05-09T01:17:52;17.10;99.90
25991;DHT22;13779;-33.886;151.198;2023-05-09T01:20:45;17.10;99.90
25991;DHT22;13779;-33.886;151.198;2023-05-09T01:31:42;17.10;99.90
25991;DHT22;13779;-33.886;151.198;2023-05-09T01:34:15;17.10;99.90
25991;DHT22;13779;-33.886;151.198;2023-05-09T01:36:49;17.10;99.90
25991;DHT22;13779;-33.886;151.198;2023-05-09T01:39:23;17.10;99.90
25991;DHT22;13779;-33.886;151.198;2023-05-09T01:41:56;17.10;99.90
25991;DHT22;13779;-33.886;151.198;2023-05-09T01:44:32;17.10;99.90
25991;DHT22;13779;-33.886;151.198;2023-05-09T01:47:03;17.10;99.90
25991;DHT22;13779;-33.886;151.198;2023-05-09T01:49:37;17.10;99.90
25991;DHT22;13779;-33.886;151.198;2023-05-09T01:52:12;17.10;99.90
25991;DHT22;13779;-33.886;151.198;2023-05-09T01:54:45;17.10;99.90
25991;DHT22;13779;-33.886;151.198;2023-05-09T01:57:17;17.10;99.90
25991;DHT22;13779;-33.886;151.198;2023-05-09T01:59:48;17.10;99.90
25991;DHT22;13779;-33.886;151.198;2023-05-09T02:02:20;17.10;99.90
25991;DHT22;13779;-33.886;151.198;2023-05-09T02:04:51;17.10;99.90
25991;DHT22;13779;-33.886;151.198;2023-05-09T02:07:24;17.20;99.90
25991;DHT22;13779;-33.886;151.198;2023-05-09T02:09:56;17.20;99.90
25991;DHT22;13779;-33.886;151.198;2023-05-09T02:12:26;17.20;99.90
25991;DHT22;13779;-33.886;151.198;2023-05-09T02:15:01;17.30;99.90
25991;DHT22;13779;-33.886;151.198;2023-05-09T02:17:31;17.30;99.90
25991;DHT22;13779;-33.886;151.198;2023-05-09T02:20:01;17.40;99.90
25991;DHT22;13779;-33.886;151.198;2023-05-09T02:22:34;17.30;99.90
25991;DHT22;13779;-33.886;151.198;2023-05-09T02:25:05;17.30;99.90
25991;DHT22;13779;-33.886;151.198;2023-05-09T02:27:38;17.30;99.90
25991;DHT22;13779;-33.886;151.198;2023-05-09T02:30:20;17.30;99.90
25991;DHT22;13779;-33.886;151.198;2023-05-09T02:33:06;17.30;99.90
25991;DHT22;13779;-33.886;151.198;2023-05-09T02:35:40;17.30;99.90
25991;DHT22;13779;-33.886;151.198;2023-05-09T02:38:15;17.30;99.90
25991;DHT22;13779;-33.886;151.198;2023-05-09T02:40:47;17.30;99.90
25991;DHT22;13779;-33.886;151.198;2023-05-09T02:43:19;17.30;99.90
25991;DHT22;13779;-33.886;151.198;2023-05-09T02:45:49;17.30;99.90
25991;DHT22;13779;-33.886;151.198;2023-05-09T02:48:19;17.30;99.90
25991;DHT22;13779;-33.886;151.198;2023-05-09T02:50:53;17.20;99.90
25991;DHT22;13779;-33.886;151.198;2023-05-09T02:53:23;17.10;99.90
25991;DHT22;13779;-33.886;151.198;2023-05-09T02:55:53;17.10;99.90
25991;DHT22;13779;-33.886;151.198;2023-05-09T02:58:23;17.10;99.90
25991;DHT22;13779;-33.886;151.198;2023-05-09T03:00:53;17.10;99.90
25991;DHT22;13779;-33.886;151.198;2023-05-09T03:03:23;17.10;99.90
25991;DHT22;13779;-33.886;151.198;2023-05-09T03:05:54;17.00;99.90
25991;DHT22;13779;-33.886;151.198;2023-05-09T03:08:24;17.00;99.90
25991;DHT22;13779;-33.886;151.198;2023-05-09T03:10:54;17.00;99.90
25991;DHT22;13779;-33.886;151.198;2023-05-09T03:13:24;17.00;99.90
25991;DHT22;13779;-33.886;151.198;2023-05-09T03:15:54;17.00;99.90
25991;DHT22;13779;-33.886;151.198;2023-05-09T03:18:25;17.10;99.90
25991;DHT22;13779;-33.886;151.198;2023-05-09T03:20:55;17.20;99.90
25991;DHT22;13779;-33.886;151.198;2023-05-09T03:23:25;17.20;99.90
25991;DHT22;13779;-33.886;151.198;2023-05-09T03:25:55;17.10;99.90
25991;DHT22;13779;-33.886;151.198;2023-05-09T03:28:26;17.20;99.90
25991;DHT22;13779;-33.886;151.198;2023-05-09T03:30:56;17.20;99.90
25991;DHT22;13779;-33.886;151.198;2023-05-09T03:33:26;17.10;99.90
25991;DHT22;13779;-33.886;151.198;2023-05-09T03:35:56;17.10;99.90
25991;DHT22;13779;-33.886;151.198;2023-05-09T03:38:26;17.10;99.90
25991;DHT22;13779;-33.886;151.198;2023-05-09T03:40:56;17.10;99.90
25991;DHT22;13779;-33.886;151.198;2023-05-09T03:43:26;17.10;99.90
25991;DHT22;13779;-33.886;151.198;2023-05-09T03:45:56;17.10;99.90
25991;DHT22;13779;-33.886;151.198;2023-05-09T03:48:26;17.10;99.90
25991;DHT22;13779;-33.886;151.198;2023-05-09T03:50:56;17.10;99.90
25991;DHT22;13779;-33.886;151.198;2023-05-09T03:53:27;17.00;99.90
25991;DHT22;13779;-33.886;151.198;2023-05-09T03:55:57;17.00;99.90
25991;DHT22;13779;-33.886;151.198;2023-05-09T03:58:27;17.10;99.90
25991;DHT22;13779;-33.886;151.198;2023-05-09T04:00:57;17.10;99.90
25991;DHT22;13779;-33.886;151.198;2023-05-09T04:03:27;17.10;99.90
25991;DHT22;13779;-33.886;151.198;2023-05-09T04:05:57;17.00;99.90
25991;DHT22;13779;-33.886;151.198;2023-05-09T04:08:27;17.00;99.90
25991;DHT22;13779;-33.886;151.198;2023-05-09T04:10:57;17.00;99.90
25991;DHT22;13779;-33.886;151.198;2023-05-09T04:13:27;17.00;99.90
25991;DHT22;13779;-33.886;151.198;2023-05-09T04:15:59;16.90;99.90
25991;DHT22;13779;-33.886;151.198;2023-05-09T04:18:29;16.90;99.90
25991;DHT22;13779;-33.886;151.198;2023-05-09T04:21:00;16.90;99.90
25991;DHT22;13779;-33.886;151.198;2023-05-09T04:23:30;17.00;99.90
25991;DHT22;13779;-33.886;151.198;2023-05-09T04:26:01;17.00;99.90
25991;DHT22;13779;-33.886;151.198;2023-05-09T04:28:31;17.00;99.90
25991;DHT22;13779;-33.886;151.198;2023-05-09T04:31:01;17.00;99.90
25991;DHT22;13779;-33.886;151.198;2023-05-09T04:33:31;17.00;99.90
25991;DHT22;13779;-33.886;151.198;2023-05-09T04:36:02;16.90;99.90
25991;DHT22;13779;-33.886;151.198;2023-05-09T04:38:32;16.90;99.90
25991;DHT22;13779;-33.886;151.198;2023-05-09T04:41:02;16.90;99.90
25991;DHT22;13779;-33.886;151.198;2023-05-09T04:43:32;16.90;99.90
25991;DHT22;13779;-33.886;151.198;2023-05-09T04:46:03;16.90;99.90
25991;DHT22;13779;-33.886;151.198;2023-05-09T04:48:34;17.00;99.90
25991;DHT22;13779;-33.886;151.198;2023-05-09T04:51:05;17.00;99.90
25991;DHT22;13779;-33.886;151.198;2023-05-09T04:53:35;17.00;99.90
25991;DHT22;13779;-33.886;151.198;2023-05-09T04:56:06;17.00;99.90
25991;DHT22;13779;-33.886;151.198;2023-05-09T04:58:37;17.00;99.90
25991;DHT22;13779;-33.886;151.198;2023-05-09T05:01:08;17.10;99.90
25991;DHT22;13779;-33.886;151.198;2023-05-09T05:03:38;17.00;99.90
25991;DHT22;13779;-33.886;151.198;2023-05-09T05:06:09;17.10;99.90
25991;DHT22;13779;-33.886;151.198;2023-05-09T05:08:39;17.10;99.90
25991;DHT22;13779;-33.886;151.198;2023-05-09T05:11:10;17.10;99.90
25991;DHT22;13779;-33.886;151.198;2023-05-09T05:13:40;17.10;99.90
25991;DHT22;13779;-33.886;151.198;2023-05-09T05:16:10;17.10;99.90
25991;DHT22;13779;-33.886;151.198;2023-05-09T05:18:41;17.10;99.90
25991;DHT22;13779;-33.886;151.198;2023-05-09T05:21:11;17.10;99.90
25991;DHT22;13779;-33.886;151.198;2023-05-09T05:23:42;17.00;99.90
25991;DHT22;13779;-33.886;151.198;2023-05-09T05:26:12;17.00;99.90
25991;DHT22;13779;-33.886;151.198;2023-05-09T05:28:43;17.00;99.90
25991;DHT22;13779;-33.886;151.198;2023-05-09T05:31:13;17.00;99.90
25991;DHT22;13779;-33.886;151.198;2023-05-09T05:33:44;16.90;99.90
25991;DHT22;13779;-33.886;151.198;2023-05-09T05:36:14;16.90;99.90
25991;DHT22;13779;-33.886;151.198;2023-05-09T05:38:45;16.90;99.90
25991;DHT22;13779;-33.886;151.198;2023-05-09T05:41:15;16.90;99.90
25991;DHT22;13779;-33.886;151.198;2023-05-09T05:43:46;16.90;99.90
25991;DHT22;13779;-33.886;151.198;2023-05-09T05:46:16;16.90;99.90
25991;DHT22;13779;-33.886;151.198;2023-05-09T05:48:47;16.90;99.90
25991;DHT22;13779;-33.886;151.198;2023-05-09T05:51:17;16.90;99.90
25991;DHT22;13779;-33.886;151.198;2023-05-09T05:53:48;16.90;99.90
25991;DHT22;13779;-33.886;151.198;2023-05-09T05:56:19;16.90;99.90
25991;DHT22;13779;-33.886;151.198;2023-05-09T05:58:51;16.80;99.90
25991;DHT22;13779;-33.886;151.198;2023-05-09T06:01:22;16.80;99.90
25991;DHT22;13779;-33.886;151.198;2023-05-09T06:03:53;16.80;99.90
25991;DHT22;13779;-33.886;151.198;2023-05-09T06:06:26;16.80;99.90
25991;DHT22;13779;-33.886;151.198;2023-05-09T06:08:56;16.80;99.90
25991;DHT22;13779;-33.886;151.198;2023-05-09T06:11:27;16.90;99.90
25991;DHT22;13779;-33.886;151.198;2023-05-09T06:13:57;16.80;99.90
25991;DHT22;13779;-33.886;151.198;2023-05-09T06:16:28;16.90;99.90
25991;DHT22;13779;-33.886;151.198;2023-05-09T06:18:59;16.80;99.90
25991;DHT22;13779;-33.886;151.198;2023-05-09T06:21:29;16.80;99.90
25991;DHT22;13779;-33.886;151.198;2023-05-09T06:24:00;16.80;99.90
25991;DHT22;13779;-33.886;151.198;2023-05-09T06:26:37;16.80;99.90
25991;DHT22;13779;-33.886;151.198;2023-05-09T06:29:07;16.80;99.90
25991;DHT22;13779;-33.886;151.198;2023-05-09T06:31:39;16.80;99.90
25991;DHT22;13779;-33.886;151.198;2023-05-09T06:34:09;16.80;99.90
25991;DHT22;13779;-33.886;151.198;2023-05-09T06:36:40;16.80;99.90
25991;DHT22;13779;-33.886;151.198;2023-05-09T06:39:11;16.70;99.90
25991;DHT22;13779;-33.886;151.198;2023-05-09T06:41:41;16.70;99.90
25991;DHT22;13779;-33.886;151.198;2023-05-09T06:44:12;16.70;99.90
25991;DHT22;13779;-33.886;151.198;2023-05-09T06:46:43;16.60;99.90
25991;DHT22;13779;-33.886;151.198;2023-05-09T06:49:13;16.60;99.90
25991;DHT22;13779;-33.886;151.198;2023-05-09T06:51:44;16.50;99.90
25991;DHT22;13779;-33.886;151.198;2023-05-09T06:54:14;16.50;99.90
25991;DHT22;13779;-33.886;151.198;2023-05-09T06:56:45;16.40;99.90
25991;DHT22;13779;-33.886;151.198;2023-05-09T06:59:16;16.40;99.90
25991;DHT22;13779;-33.886;151.198;2023-05-09T07:01:47;16.40;99.90
25991;DHT22;13779;-33.886;151.198;2023-05-09T07:04:17;16.40;99.90
25991;DHT22;13779;-33.886;151.198;2023-05-09T07:06:48;16.30;99.90
25991;DHT22;13779;-33.886;151.198;2023-05-09T07:09:18;16.30;99.90
25991;DHT22;13779;-33.886;151.198;2023-05-09T07:11:49;16.30;99.90
25991;DHT22;13779;-33.886;151.198;2023-05-09T07:14:19;16.20;99.90
25991;DHT22;13779;-33.886;151.198;2023-05-09T07:16:50;16.20;99.90
25991;DHT22;13779;-33.886;151.198;2023-05-09T07:19:25;16.20;99.90
25991;DHT22;13779;-33.886;151.198;2023-05-09T07:21:55;16.20;99.90
25991;DHT22;13779;-33.886;151.198;2023-05-09T07:24:26;16.10;99.90
25991;DHT22;13779;-33.886;151.198;2023-05-09T07:26:56;16.10;99.90
25991;DHT22;13779;-33.886;151.198;2023-05-09T07:29:28;16.10;99.90
25991;DHT22;13779;-33.886;151.198;2023-05-09T07:31:58;16.10;99.90
25991;DHT22;13779;-33.886;151.198;2023-05-09T07:34:29;16.10;99.90
25991;DHT22;13779;-33.886;151.198;2023-05-09T07:36:59;16.00;99.90
25991;DHT22;13779;-33.886;151.198;2023-05-09T07:39:29;16.00;99.90
25991;DHT22;13779;-33.886;151.198;2023-05-09T07:42:00;15.90;99.90
25991;DHT22;13779;-33.886;151.198;2023-05-09T07:44:34;15.90;99.90
25991;DHT22;13779;-33.886;151.198;2023-05-09T07:47:05;15.80;99.90
25991;DHT22;13779;-33.886;151.198;2023-05-09T07:49:37;15.80;99.90
25991;DHT22;13779;-33.886;151.198;2023-05-09T07:52:09;15.70;99.90
25991;DHT22;13779;-33.886;151.198;2023-05-09T07:54:39;15.70;99.90
25991;DHT22;13779;-33.886;151.198;2023-05-09T07:57:10;15.70;99.90
25991;DHT22;13779;-33.886;151.198;2023-05-09T07:59:41;15.60;99.90
25991;DHT22;13779;-33.886;151.198;2023-05-09T08:02:11;15.60;99.90
25991;DHT22;13779;-33.886;151.198;2023-05-09T08:04:41;15.50;99.90
25991;DHT22;13779;-33.886;151.198;2023-05-09T08:07:12;15.60;99.90
25991;DHT22;13779;-33.886;151.198;2023-05-09T08:09:42;15.50;99.90
25991;DHT22;13779;-33.886;151.198;2023-05-09T08:12:12;15.50;99.90
25991;DHT22;13779;-33.886;151.198;2023-05-09T08:14:42;15.50;99.90
25991;DHT22;13779;-33.886;151.198;2023-05-09T08:17:12;15.60;99.90
25991;DHT22;13779;-33.886;151.198;2023-05-09T08:19:42;15.60;99.90
25991;DHT22;13779;-33.886;151.198;2023-05-09T08:22:19;15.60;99.90
25991;DHT22;13779;-33.886;151.198;2023-05-09T08:24:49;15.60;99.90
25991;DHT22;13779;-33.886;151.198;2023-05-09T08:27:19;15.70;99.90
25991;DHT22;13779;-33.886;151.198;2023-05-09T08:29:49;15.80;99.90
25991;DHT22;13779;-33.886;151.198;2023-05-09T08:32:19;15.90;99.90
25991;DHT22;13779;-33.886;151.198;2023-05-09T08:34:50;15.90;99.90
25991;DHT22;13779;-33.886;151.198;2023-05-09T08:37:20;15.80;99.90
25991;DHT22;13779;-33.886;151.198;2023-05-09T08:39:50;15.80;99.90
25991;DHT22;13779;-33.886;151.198;2023-05-09T08:42:21;15.80;99.90
25991;DHT22;13779;-33.886;151.198;2023-05-09T08:44:53;15.80;99.90
25991;DHT22;13779;-33.886;151.198;2023-05-09T08:47:23;15.80;99.90
25991;DHT22;13779;-33.886;151.198;2023-05-09T08:49:54;15.80;99.90
25991;DHT22;13779;-33.886;151.198;2023-05-09T08:52:24;15.80;99.90
25991;DHT22;13779;-33.886;151.198;2023-05-09T08:54:55;15.70;99.90
25991;DHT22;13779;-33.886;151.198;2023-05-09T08:57:26;15.50;99.90
25991;DHT22;13779;-33.886;151.198;2023-05-09T08:59:56;15.40;99.90
25991;DHT22;13779;-33.886;151.198;2023-05-09T09:02:29;15.40;99.90
25991;DHT22;13779;-33.886;151.198;2023-05-09T09:05:03;15.40;99.90
25991;DHT22;13779;-33.886;151.198;2023-05-09T09:07:47;15.40;99.90
25991;DHT22;13779;-33.886;151.198;2023-05-09T09:10:21;15.30;99.90
25991;DHT22;13779;-33.886;151.198;2023-05-09T09:12:55;15.30;99.90
25991;DHT22;13779;-33.886;151.198;2023-05-09T09:15:36;15.20;99.90
25991;DHT22;13779;-33.886;151.198;2023-05-09T09:18:27;15.20;99.90
25991;DHT22;13779;-33.886;151.198;2023-05-09T09:21:06;15.20;99.90
25991;DHT22;13779;-33.886;151.198;2023-05-09T09:23:40;15.10;99.90
25991;DHT22;13779;-33.886;151.198;2023-05-09T09:26:12;15.10;99.90
25991;DHT22;13779;-33.886;151.198;2023-05-09T09:28:43;15.10;99.90
25991;DHT22;13779;-33.886;151.198;2023-05-09T09:34:02;15.00;99.90
25991;DHT22;13779;-33.886;151.198;2023-05-09T09:36:33;15.00;99.90
25991;DHT22;13779;-33.886;151.198;2023-05-09T09:39:05;15.00;99.90
25991;DHT22;13779;-33.886;151.198;2023-05-09T09:41:38;14.90;99.90
25991;DHT22;13779;-33.886;151.198;2023-05-09T09:44:13;14.90;99.90
25991;DHT22;13779;-33.886;151.198;2023-05-09T09:46:48;14.90;99.90
25991;DHT22;13779;-33.886;151.198;2023-05-09T09:49:24;15.00;99.90
25991;DHT22;13779;-33.886;151.198;2023-05-09T09:51:56;15.00;99.90
25991;DHT22;13779;-33.886;151.198;2023-05-09T09:54:27;15.00;99.90
25991;DHT22;13779;-33.886;151.198;2023-05-09T09:56:58;15.10;99.90
25991;DHT22;13779;-33.886;151.198;2023-05-09T09:59:28;15.20;99.90
25991;DHT22;13779;-33.886;151.198;2023-05-09T10:02:01;15.20;99.90
25991;DHT22;13779;-33.886;151.198;2023-05-09T10:04:36;15.10;99.90
25991;DHT22;13779;-33.886;151.198;2023-05-09T10:07:08;15.10;99.90
25991;DHT22;13779;-33.886;151.198;2023-05-09T10:09:41;15.00;99.90
25991;DHT22;13779;-33.886;151.198;2023-05-09T10:12:12;14.80;99.90
25991;DHT22;13779;-33.886;151.198;2023-05-09T10:14:44;14.70;99.90
25991;DHT22;13779;-33.886;151.198;2023-05-09T10:17:15;14.70;99.90
25991;DHT22;13779;-33.886;151.198;2023-05-09T10:19:47;14.70;99.90
25991;DHT22;13779;-33.886;151.198;2023-05-09T10:22:18;14.70;99.90
25991;DHT22;13779;-33.886;151.198;2023-05-09T10:25:14;14.70;99.90
25991;DHT22;13779;-33.886;151.198;2023-05-09T10:27:46;14.70;99.90
25991;DHT22;13779;-33.886;151.198;2023-05-09T10:30:27;14.70;99.90
25991;DHT22;13779;-33.886;151.198;2023-05-09T10:33:02;14.70;99.90
25991;DHT22;13779;-33.886;151.198;2023-05-09T10:35:36;14.70;99.90
25991;DHT22;13779;-33.886;151.198;2023-05-09T10:38:09;14.60;99.90
25991;DHT22;13779;-33.886;151.198;2023-05-09T10:40:46;14.70;99.90
25991;DHT22;13779;-33.886;151.198;2023-05-09T10:43:17;14.70;99.90
25991;DHT22;13779;-33.886;151.198;2023-05-09T10:45:47;14.70;99.90
25991;DHT22;13779;-33.886;151.198;2023-05-09T10:48:18;14.70;99.90
25991;DHT22;13779;-33.886;151.198;2023-05-09T10:50:48;14.70;99.90
25991;DHT22;13779;-33.886;151.198;2023-05-09T10:53:18;14.80;99.90
25991;DHT22;13779;-33.886;151.198;2023-05-09T10:55:58;14.80;99.90
25991;DHT22;13779;-33.886;151.198;2023-05-09T10:58:32;14.80;99.90
25991;DHT22;13779;-33.886;151.198;2023-05-09T11:01:05;14.80;99.90
25991;DHT22;13779;-33.886;151.198;2023-05-09T11:03:57;14.80;99.90
25991;DHT22;13779;-33.886;151.198;2023-05-09T11:06:54;14.80;99.90
25991;DHT22;13779;-33.886;151.198;2023-05-09T11:09:32;14.90;99.90
25991;DHT22;13779;-33.886;151.198;2023-05-09T11:12:12;14.90;99.90
25991;DHT22;13779;-33.886;151.198;2023-05-09T11:14:47;14.80;99.90
25991;DHT22;13779;-33.886;151.198;2023-05-09T11:17:27;14.90;99.90
25991;DHT22;13779;-33.886;151.198;2023-05-09T11:20:04;14.90;99.90
25991;DHT22;13779;-33.886;151.198;2023-05-09T11:22:40;14.90;99.90
25991;DHT22;13779;-33.886;151.198;2023-05-09T11:25:14;14.90;99.90
25991;DHT22;13779;-33.886;151.198;2023-05-09T11:27:51;15.00;99.90
25991;DHT22;13779;-33.886;151.198;2023-05-09T11:30:37;15.10;99.90
25991;DHT22;13779;-33.886;151.198;2023-05-09T11:33:26;15.10;99.90
25991;DHT22;13779;-33.886;151.198;2023-05-09T11:38:47;15.20;99.90
25991;DHT22;13779;-33.886;151.198;2023-05-09T11:41:17;15.30;99.90
25991;DHT22;13779;-33.886;151.198;2023-05-09T11:43:48;15.30;99.90
25991;DHT22;13779;-33.886;151.198;2023-05-09T11:46:18;15.20;99.90
25991;DHT22;13779;-33.886;151.198;2023-05-09T11:48:48;15.30;99.90
25991;DHT22;13779;-33.886;151.198;2023-05-09T11:51:19;15.30;99.90
25991;DHT22;13779;-33.886;151.198;2023-05-09T11:53:50;15.20;99.90
25991;DHT22;13779;-33.886;151.198;2023-05-09T11:56:22;15.20;99.90
25991;DHT22;13779;-33.886;151.198;2023-05-09T11:58:52;15.20;99.90
25991;DHT22;13779;-33.886;151.198;2023-05-09T12:01:22;15.20;99.90
25991;DHT22;13779;-33.886;151.198;2023-05-09T12:03:53;15.20;99.90
25991;DHT22;13779;-33.886;151.198;2023-05-09T12:06:23;15.10;99.90
25991;DHT22;13779;-33.886;151.198;2023-05-09T12:08:54;15.10;99.90
25991;DHT22;13779;-33.886;151.198;2023-05-09T12:11:25;15.10;99.90
25991;DHT22;13779;-33.886;151.198;2023-05-09T12:14:00;15.10;99.90
25991;DHT22;13779;-33.886;151.198;2023-05-09T12:16:30;15.10;99.90
25991;DHT22;13779;-33.886;151.198;2023-05-09T12:19:01;15.10;99.90
25991;DHT22;13779;-33.886;151.198;2023-05-09T12:21:31;15.10;99.90
25991;DHT22;13779;-33.886;151.198;2023-05-09T12:24:01;15.00;99.90
25991;DHT22;13779;-33.886;151.198;2023-05-09T12:26:33;15.00;99.90
25991;DHT22;13779;-33.886;151.198;2023-05-09T12:29:03;15.00;99.90
25991;DHT22;13779;-33.886;151.198;2023-05-09T12:31:34;14.90;99.90
25991;DHT22;13779;-33.886;151.198;2023-05-09T12:34:05;14.90;99.90
25991;DHT22;13779;-33.886;151.198;2023-05-09T12:36:36;14.90;99.90
25991;DHT22;13779;-33.886;151.198;2023-05-09T12:39:09;14.90;99.90
25991;DHT22;13779;-33.886;151.198;2023-05-09T12:41:49;14.90;99.90
25991;DHT22;13779;-33.886;151.198;2023-05-09T12:44:28;14.90;99.90
25991;DHT22;13779;-33.886;151.198;2023-05-09T12:47:02;14.90;99.90
25991;DHT22;13779;-33.886;151.198;2023-05-09T12:49:36;14.80;99.90
25991;DHT22;13779;-33.886;151.198;2023-05-09T12:52:18;14.80;99.90
25991;DHT22;13779;-33.886;151.198;2023-05-09T12:54:52;14.80;99.90
25991;DHT22;13779;-33.886;151.198;2023-05-09T12:57:24;14.90;99.90
25991;DHT22;13779;-33.886;151.198;2023-05-09T12:59:59;14.90;99.90
25991;DHT22;13779;-33.886;151.198;2023-05-09T13:02:38;14.80;99.90
25991;DHT22;13779;-33.886;151.198;2023-05-09T13:05:11;14.70;99.90
25991;DHT22;13779;-33.886;151.198;2023-05-09T13:07:45;14.70;99.90
25991;DHT22;13779;-33.886;151.198;2023-05-09T13:10:26;14.70;99.90
25991;DHT22;13779;-33.886;151.198;2023-05-09T13:12:59;14.60;99.90
25991;DHT22;13779;-33.886;151.198;2023-05-09T13:15:30;14.70;99.90
25991;DHT22;13779;-33.886;151.198;2023-05-09T13:18:00;14.70;99.90
25991;DHT22;13779;-33.886;151.198;2023-05-09T13:20:31;14.60;99.90
25991;DHT22;13779;-33.886;151.198;2023-05-09T13:23:01;14.60;99.90
25991;DHT22;13779;-33.886;151.198;2023-05-09T13:25:32;14.60;99.90
25991;DHT22;13779;-33.886;151.198;2023-05-09T13:28:02;14.60;99.90
25991;DHT22;13779;-33.886;151.198;2023-05-09T13:30:33;14.60;99.90
25991;DHT22;13779;-33.886;151.198;2023-05-09T13:33:04;14.50;99.90
25991;DHT22;13779;-33.886;151.198;2023-05-09T13:35:51;14.60;99.90
25991;DHT22;13779;-33.886;151.198;2023-05-09T13:38:22;14.50;99.90
25991;DHT22;13779;-33.886;151.198;2023-05-09T13:40:52;14.50;99.90
25991;DHT22;13779;-33.886;151.198;2023-05-09T13:43:23;14.40;99.90
25991;DHT22;13779;-33.886;151.198;2023-05-09T13:45:53;14.40;99.90
25991;DHT22;13779;-33.886;151.198;2023-05-09T13:48:24;14.40;99.90
25991;DHT22;13779;-33.886;151.198;2023-05-09T13:50:55;14.40;99.90
25991;DHT22;13779;-33.886;151.198;2023-05-09T13:53:26;14.30;99.90
25991;DHT22;13779;-33.886;151.198;2023-05-09T13:55:56;14.30;99.90
25991;DHT22;13779;-33.886;151.198;2023-05-09T13:58:27;14.30;99.90
25991;DHT22;13779;-33.886;151.198;2023-05-09T14:00:57;14.30;99.90
25991;DHT22;13779;-33.886;151.198;2023-05-09T14:03:28;14.30;99.90
25991;DHT22;13779;-33.886;151.198;2023-05-09T14:05:59;14.30;99.90
25991;DHT22;13779;-33.886;151.198;2023-05-09T14:08:29;14.30;99.90
25991;DHT22;13779;-33.886;151.198;2023-05-09T14:11:01;14.20;99.90
25991;DHT22;13779;-33.886;151.198;2023-05-09T14:13:31;14.20;99.90
25991;DHT22;13779;-33.886;151.198;2023-05-09T14:16:02;14.20;99.90
25991;DHT22;13779;-33.886;151.198;2023-05-09T14:18:34;14.20;99.90
25991;DHT22;13779;-33.886;151.198;2023-05-09T14:21:05;14.20;99.90
25991;DHT22;13779;-33.886;151.198;2023-05-09T14:23:35;14.30;99.90
25991;DHT22;13779;-33.886;151.198;2023-05-09T14:26:06;14.30;99.90
25991;DHT22;13779;-33.886;151.198;2023-05-09T14:28:37;14.30;99.90
25991;DHT22;13779;-33.886;151.198;2023-05-09T14:31:07;14.30;99.90
25991;DHT22;13779;-33.886;151.198;2023-05-09T14:33:38;14.30;99.90
25991;DHT22;13779;-33.886;151.198;2023-05-09T14:36:09;14.30;99.90
25991;DHT22;13779;-33.886;151.198;2023-05-09T14:38:40;14.30;99.90
25991;DHT22;13779;-33.886;151.198;2023-05-09T14:41:14;14.20;99.90
25991;DHT22;13779;-33.886;151.198;2023-05-09T14:43:46;14.20;99.90
25991;DHT22;13779;-33.886;151.198;2023-05-09T14:46:17;14.30;99.90
25991;DHT22;13779;-33.886;151.198;2023-05-09T14:48:48;14.30;99.90
25991;DHT22;13779;-33.886;151.198;2023-05-09T14:51:22;14.30;99.90
25991;DHT22;13779;-33.886;151.198;2023-05-09T14:53:53;14.30;99.90
25991;DHT22;13779;-33.886;151.198;2023-05-09T14:56:23;14.30;99.90
25991;DHT22;13779;-33.886;151.198;2023-05-09T14:58:54;14.30;99.90
25991;DHT22;13779;-33.886;151.198;2023-05-09T15:01:25;14.20;99.90
25991;DHT22;13779;-33.886;151.198;2023-05-09T15:03:56;14.20;99.90
25991;DHT22;13779;-33.886;151.198;2023-05-09T15:06:26;14.20;99.90
25991;DHT22;13779;-33.886;151.198;2023-05-09T15:08:58;14.20;99.90
25991;DHT22;13779;-33.886;151.198;2023-05-09T15:11:28;14.20;99.90
25991;DHT22;13779;-33.886;151.198;2023-05-09T15:14:10;14.20;99.90
25991;DHT22;13779;-33.886;151.198;2023-05-09T15:16:41;14.20;99.90
25991;DHT22;13779;-33.886;151.198;2023-05-09T15:19:11;14.20;99.90
25991;DHT22;13779;-33.886;151.198;2023-05-09T15:21:43;14.20;99.90
25991;DHT22;13779;-33.886;151.198;2023-05-09T15:24:13;14.20;99.90
25991;DHT22;13779;-33.886;151.198;2023-05-09T15:26:44;14.20;99.90
25991;DHT22;13779;-33.886;151.198;2023-05-09T15:29:15;14.20;99.90
25991;DHT22;13779;-33.886;151.198;2023-05-09T15:31:46;14.10;99.90
25991;DHT22;13779;-33.886;151.198;2023-05-09T15:34:17;14.10;99.90
25991;DHT22;13779;-33.886;151.198;2023-05-09T15:36:47;14.10;99.90